createdAt,value
2018-05-29T00:00:33.573Z,1011.18
2018-05-29T00:01:33.560Z,1011.18
2018-05-29T00:02:33.543Z,1011.19
2018-05-29T00:03:33.524Z,1011.24
2018-05-29T00:04:33.514Z,1011.18
2018-05-29T00:05:33.504Z,1011.18
2018-05-29T00:06:33.514Z,1011.19
2018-05-29T00:07:33.489Z,1011.18
2018-05-29T00:08:33.474Z,1011.19
2018-05-29T00:09:33.467Z,1011.17
2018-05-29T00:10:33.461Z,1011.18
2018-05-29T00:11:33.475Z,1011.18
2018-05-29T00:12:33.448Z,1011.21
2018-05-29T00:13:33.433Z,1011.19
2018-05-29T00:14:33.419Z,1011.22
2018-05-29T00:15:33.434Z,1011.17
2018-05-29T00:16:33.418Z,1011.18
2018-05-29T00:17:33.412Z,1011.19
2018-05-29T00:18:33.387Z,1011.19
2018-05-29T00:19:33.377Z,1011.20
2018-05-29T00:20:33.372Z,1011.20
2018-05-29T00:21:33.380Z,1011.15
2018-05-29T00:22:33.367Z,1011.19
2018-05-29T00:23:33.339Z,1011.15
2018-05-29T00:24:33.335Z,1011.16
2018-05-29T00:25:33.327Z,1011.14
2018-05-29T00:26:33.316Z,1011.18
2018-05-29T00:27:33.324Z,1011.16
2018-05-29T00:28:33.298Z,1011.22
2018-05-29T00:29:33.292Z,1011.20
2018-05-29T00:30:33.291Z,1011.20
2018-05-29T00:31:33.270Z,1011.17
2018-05-29T00:32:33.276Z,1011.17
2018-05-29T00:33:33.249Z,1011.18
2018-05-29T00:34:33.239Z,1011.17
2018-05-29T00:35:33.237Z,1011.15
2018-05-29T00:36:33.225Z,1011.13
2018-05-29T00:37:33.231Z,1011.11
2018-05-29T00:38:33.223Z,1011.11
2018-05-29T00:39:33.194Z,1011.08
2018-05-29T00:40:33.187Z,1011.08
2018-05-29T00:41:33.181Z,1011.08
2018-05-29T00:42:33.169Z,1011.10
2018-05-29T00:43:33.174Z,1011.08
2018-05-29T00:44:33.155Z,1011.03
2018-05-29T00:45:33.138Z,1011.04
2018-05-29T00:46:33.139Z,1011.05
2018-05-29T00:47:33.120Z,1010.99
2018-05-29T00:48:33.108Z,1010.98
2018-05-29T00:49:33.142Z,1010.98
2018-05-29T00:50:33.094Z,1010.97
2018-05-29T00:51:33.088Z,1010.92
2018-05-29T00:52:33.069Z,1010.95
2018-05-29T00:53:33.079Z,1010.90
2018-05-29T00:54:33.053Z,1010.91
2018-05-29T00:55:33.061Z,1010.94
2018-05-29T00:56:33.046Z,1010.91
2018-05-29T00:57:33.022Z,1010.89
2018-05-29T00:58:33.018Z,1010.90
2018-05-29T00:59:33.006Z,1010.89
2018-05-29T01:00:33.015Z,1010.87
2018-05-29T01:01:32.988Z,1010.84
2018-05-29T01:02:32.977Z,1010.82
2018-05-29T01:03:32.967Z,1010.82
2018-05-29T01:04:32.960Z,1010.85
2018-05-29T01:05:32.969Z,1010.82
2018-05-29T01:06:32.939Z,1010.81
2018-05-29T01:07:32.930Z,1010.84
2018-05-29T01:08:32.924Z,1010.86
2018-05-29T01:09:32.911Z,1010.83
2018-05-29T01:10:32.905Z,1010.85
2018-05-29T01:11:32.909Z,1010.85
2018-05-29T01:12:32.883Z,1010.86
2018-05-29T01:13:32.874Z,1010.87
2018-05-29T01:14:32.867Z,1010.86
2018-05-29T01:15:32.856Z,1010.86
2018-05-29T01:16:32.858Z,1010.82
2018-05-29T01:17:32.836Z,1010.82
2018-05-29T01:18:32.828Z,1010.82
2018-05-29T01:19:32.817Z,1010.83
2018-05-29T01:20:32.805Z,1010.82
2018-05-29T01:21:32.817Z,1010.80
2018-05-29T01:22:32.787Z,1010.83
2018-05-29T01:23:32.780Z,1010.84
2018-05-29T01:24:32.769Z,1010.84
2018-05-29T01:25:32.761Z,1010.82
2018-05-29T01:26:32.750Z,1010.80
2018-05-29T01:27:32.754Z,1010.83
2018-05-29T01:28:32.731Z,1010.80
2018-05-29T01:29:32.721Z,1010.80
2018-05-29T01:30:32.717Z,1010.80
2018-05-29T01:31:32.702Z,1010.79
2018-05-29T01:32:32.711Z,1010.79
2018-05-29T01:33:32.683Z,1010.75
2018-05-29T01:34:32.677Z,1010.76
2018-05-29T01:35:32.670Z,1010.73
2018-05-29T01:36:32.657Z,1010.72
2018-05-29T01:37:32.660Z,1010.71
2018-05-29T01:38:32.656Z,1010.73
2018-05-29T01:39:32.635Z,1010.72
2018-05-29T01:40:32.616Z,1010.72
2018-05-29T01:41:32.608Z,1010.71
2018-05-29T01:42:32.595Z,1010.75
2018-05-29T01:43:32.601Z,1010.71
2018-05-29T01:44:32.596Z,1010.71
2018-05-29T01:45:32.576Z,1010.73
2018-05-29T01:46:32.563Z,1010.69
2018-05-29T01:47:32.549Z,1010.71
2018-05-29T01:48:32.557Z,1010.67
2018-05-29T01:49:32.545Z,1010.66
2018-05-29T01:50:32.519Z,1010.64
2018-05-29T01:51:32.506Z,1010.66
2018-05-29T01:52:32.500Z,1010.63
2018-05-29T01:53:32.493Z,1010.61
2018-05-29T01:54:32.496Z,1010.61
2018-05-29T01:55:32.471Z,1010.59
2018-05-29T01:56:32.463Z,1010.65
2018-05-29T01:57:32.455Z,1010.62
2018-05-29T01:58:32.444Z,1010.63
2018-05-29T01:59:32.456Z,1010.62
2018-05-29T02:00:32.420Z,1010.60
2018-05-29T02:01:32.414Z,1010.60
2018-05-29T02:02:32.416Z,1010.60
2018-05-29T02:03:32.396Z,1010.58
2018-05-29T02:04:32.431Z,1010.57
2018-05-29T02:05:32.393Z,1010.58
2018-05-29T02:06:32.368Z,1010.57
2018-05-29T02:07:32.384Z,1010.56
2018-05-29T02:08:32.352Z,1010.56
2018-05-29T02:09:32.340Z,1010.57
2018-05-29T02:10:32.361Z,1010.57
2018-05-29T02:11:32.316Z,1010.56
2018-05-29T02:12:32.309Z,1010.54
2018-05-29T02:13:32.293Z,1010.54
2018-05-29T02:14:32.327Z,1010.51
2018-05-29T02:15:32.286Z,1010.49
2018-05-29T02:16:32.262Z,1010.50
2018-05-29T02:17:32.260Z,1010.51
2018-05-29T02:18:32.249Z,1010.54
2018-05-29T02:19:32.232Z,1010.54
2018-05-29T02:20:32.245Z,1010.51
2018-05-29T02:21:32.226Z,1010.50
2018-05-29T02:22:32.205Z,1010.48
2018-05-29T02:23:32.201Z,1010.50
2018-05-29T02:24:32.181Z,1010.51
2018-05-29T02:25:32.196Z,1010.52
2018-05-29T02:26:32.184Z,1010.51
2018-05-29T02:27:32.154Z,1010.50
2018-05-29T02:28:32.145Z,1010.51
2018-05-29T02:29:32.141Z,1010.53
2018-05-29T02:30:32.129Z,1010.50
2018-05-29T02:31:32.115Z,1010.52
2018-05-29T02:32:53.125Z,1010.51
2018-05-29T02:33:32.100Z,1010.46
2018-05-29T02:34:32.089Z,1010.45
2018-05-29T02:35:32.078Z,1010.47
2018-05-29T02:36:32.065Z,1010.42
2018-05-29T02:37:32.077Z,1010.41
2018-05-29T02:38:32.065Z,1010.42
2018-05-29T02:39:32.041Z,1010.39
2018-05-29T02:40:32.041Z,1010.42
2018-05-29T02:41:32.039Z,1010.42
2018-05-29T02:42:32.037Z,1010.44
2018-05-29T02:43:32.001Z,1010.41
2018-05-29T02:44:31.992Z,1010.45
2018-05-29T02:45:31.982Z,1010.42
2018-05-29T02:46:31.970Z,1010.38
2018-05-29T02:47:31.980Z,1010.37
2018-05-29T02:48:31.950Z,1010.35
2018-05-29T02:49:31.954Z,1010.34
2018-05-29T02:50:31.929Z,1010.29
2018-05-29T02:51:31.918Z,1010.30
2018-05-29T02:52:31.921Z,1010.28
2018-05-29T02:53:31.902Z,1010.29
2018-05-29T02:54:31.888Z,1010.27
2018-05-29T02:55:31.884Z,1010.25
2018-05-29T02:56:31.873Z,1010.27
2018-05-29T02:57:31.896Z,1010.23
2018-05-29T02:58:31.849Z,1010.27
2018-05-29T02:59:31.839Z,1010.23
2018-05-29T03:00:31.827Z,1010.21
2018-05-29T03:01:31.821Z,1010.27
2018-05-29T03:02:31.807Z,1010.23
2018-05-29T03:03:31.812Z,1010.23
2018-05-29T03:04:31.788Z,1010.20
2018-05-29T03:05:31.779Z,1010.22
2018-05-29T03:06:31.775Z,1010.18
2018-05-29T03:07:31.769Z,1010.18
2018-05-29T03:08:31.764Z,1010.17
2018-05-29T03:09:31.740Z,1010.16
2018-05-29T03:10:31.729Z,1010.14
2018-05-29T03:11:31.716Z,1010.13
2018-05-29T03:12:31.708Z,1010.13
2018-05-29T03:13:31.715Z,1010.10
2018-05-29T03:14:31.702Z,1010.16
2018-05-29T03:15:31.675Z,1010.18
2018-05-29T03:16:31.662Z,1010.16
2018-05-29T03:17:31.655Z,1010.23
2018-05-29T03:18:31.649Z,1010.24
2018-05-29T03:19:31.638Z,1010.20
2018-05-29T03:20:31.645Z,1010.25
2018-05-29T03:21:31.620Z,1010.27
2018-05-29T03:22:31.613Z,1010.24
2018-05-29T03:23:31.641Z,1010.26
2018-05-29T03:24:31.604Z,1010.24
2018-05-29T03:25:31.577Z,1010.23
2018-05-29T03:26:31.588Z,1010.21
2018-05-29T03:27:31.551Z,1010.22
2018-05-29T03:28:31.539Z,1010.20
2018-05-29T03:29:31.554Z,1010.21
2018-05-29T03:30:31.540Z,1010.22
2018-05-29T03:31:31.517Z,1010.22
2018-05-29T03:32:31.507Z,1010.23
2018-05-29T03:33:31.506Z,1010.22
2018-05-29T03:34:31.486Z,1010.21
2018-05-29T03:35:31.487Z,1010.19
2018-05-29T03:36:31.465Z,1010.16
2018-05-29T03:37:31.455Z,1010.20
2018-05-29T03:38:31.443Z,1010.19
2018-05-29T03:39:31.433Z,1010.14
2018-05-29T03:40:31.440Z,1010.13
2018-05-29T03:41:31.418Z,1010.12
2018-05-29T03:42:31.399Z,1010.13
2018-05-29T03:43:31.396Z,1010.14
2018-05-29T03:44:31.384Z,1010.12
2018-05-29T03:45:31.396Z,1010.16
2018-05-29T03:46:31.369Z,1010.14
2018-05-29T03:47:31.353Z,1010.16
2018-05-29T03:48:31.363Z,1010.15
2018-05-29T03:49:31.333Z,1010.12
2018-05-29T03:50:31.329Z,1010.17
2018-05-29T03:51:31.329Z,1010.14
2018-05-29T03:52:31.298Z,1010.13
2018-05-29T03:53:31.296Z,1010.16
2018-05-29T03:54:31.281Z,1010.16
2018-05-29T03:55:31.269Z,1010.11
2018-05-29T03:56:31.279Z,1010.15
2018-05-29T03:57:31.252Z,1010.13
2018-05-29T03:58:31.275Z,1010.13
2018-05-29T03:59:31.234Z,1010.14
2018-05-29T04:00:31.218Z,1010.14
2018-05-29T04:01:31.211Z,1010.17
2018-05-29T04:02:31.218Z,1010.22
2018-05-29T04:03:31.198Z,1010.22
2018-05-29T04:04:31.183Z,1010.22
2018-05-29T04:05:31.172Z,1010.22
2018-05-29T04:06:31.160Z,1010.24
2018-05-29T04:07:31.192Z,1010.22
2018-05-29T04:08:31.154Z,1010.29
2018-05-29T04:09:31.126Z,1010.28
2018-05-29T04:10:31.170Z,1010.29
2018-05-29T04:11:31.106Z,1010.31
2018-05-29T04:12:31.109Z,1010.30
2018-05-29T04:13:31.105Z,1010.28
2018-05-29T04:14:31.081Z,1010.28
2018-05-29T04:15:31.068Z,1010.30
2018-05-29T04:16:31.059Z,1010.30
2018-05-29T04:17:31.049Z,1010.28
2018-05-29T04:18:31.055Z,1010.30
2018-05-29T04:19:31.024Z,1010.29
2018-05-29T04:20:31.037Z,1010.31
2018-05-29T04:21:31.012Z,1010.30
2018-05-29T04:22:31.001Z,1010.33
2018-05-29T04:23:30.987Z,1010.32
2018-05-29T04:24:30.985Z,1010.36
2018-05-29T04:25:30.971Z,1010.36
2018-05-29T04:26:30.973Z,1010.39
2018-05-29T04:27:30.947Z,1010.37
2018-05-29T04:28:30.944Z,1010.41
2018-05-29T04:29:30.929Z,1010.39
2018-05-29T04:30:30.940Z,1010.40
2018-05-29T04:31:30.911Z,1010.36
2018-05-29T04:32:30.899Z,1010.37
2018-05-29T04:33:30.898Z,1010.32
2018-05-29T04:34:30.929Z,1010.31
2018-05-29T04:35:30.953Z,1010.32
2018-05-29T04:36:30.855Z,1010.29
2018-05-29T04:37:30.852Z,1010.31
2018-05-29T04:38:30.842Z,1010.33
2018-05-29T04:39:30.835Z,1010.35
2018-05-29T04:40:30.889Z,1010.30
2018-05-29T04:41:30.815Z,1010.31
2018-05-29T04:42:30.823Z,1010.31
2018-05-29T04:43:30.796Z,1010.33
2018-05-29T04:44:30.779Z,1010.30
2018-05-29T04:45:30.792Z,1010.32
2018-05-29T04:46:30.762Z,1010.32
2018-05-29T04:47:30.773Z,1010.32
2018-05-29T04:48:30.745Z,1010.35
2018-05-29T04:49:30.732Z,1010.36
2018-05-29T04:50:30.731Z,1010.32
2018-05-29T04:51:30.713Z,1010.35
2018-05-29T04:52:30.725Z,1010.37
2018-05-29T04:53:30.699Z,1010.37
2018-05-29T04:54:30.689Z,1010.37
2018-05-29T04:55:30.682Z,1010.35
2018-05-29T04:56:30.679Z,1010.36
2018-05-29T04:57:30.678Z,1010.37
2018-05-29T04:58:30.672Z,1010.30
2018-05-29T04:59:30.645Z,1010.40
2018-05-29T05:00:30.649Z,1010.37
2018-05-29T05:01:30.627Z,1010.40
2018-05-29T05:02:30.676Z,1010.37
2018-05-29T05:03:30.626Z,1010.39
2018-05-29T05:04:30.600Z,1010.38
2018-05-29T05:05:30.592Z,1010.36
2018-05-29T05:06:30.583Z,1010.34
2018-05-29T05:07:30.581Z,1010.32
2018-05-29T05:08:30.563Z,1010.32
2018-05-29T05:09:30.575Z,1010.33
2018-05-29T05:10:30.545Z,1010.31
2018-05-29T05:11:30.560Z,1010.30
2018-05-29T05:12:30.534Z,1010.32
2018-05-29T05:13:30.525Z,1010.28
2018-05-29T05:14:30.525Z,1010.20
2018-05-29T05:15:30.497Z,1010.20
2018-05-29T05:16:30.493Z,1010.22
2018-05-29T05:17:30.487Z,1010.24
2018-05-29T05:18:30.484Z,1010.21
2018-05-29T05:19:30.485Z,1010.23
2018-05-29T05:20:30.476Z,1010.25
2018-05-29T05:21:30.449Z,1010.26
2018-05-29T05:22:30.444Z,1010.27
2018-05-29T05:23:30.451Z,1010.27
2018-05-29T05:24:30.430Z,1010.31
2018-05-29T05:25:30.424Z,1010.30
2018-05-29T05:26:30.407Z,1010.30
2018-05-29T05:27:30.398Z,1010.28
2018-05-29T05:28:30.392Z,1010.30
2018-05-29T05:29:30.395Z,1010.27
2018-05-29T05:30:30.397Z,1010.30
2018-05-29T05:31:30.362Z,1010.29
2018-05-29T05:32:30.356Z,1010.29
2018-05-29T05:33:30.342Z,1010.29
2018-05-29T05:34:30.334Z,1010.27
2018-05-29T05:35:30.341Z,1010.28
2018-05-29T05:36:30.321Z,1010.29
2018-05-29T05:37:30.314Z,1010.25
2018-05-29T05:38:30.301Z,1010.28
2018-05-29T05:39:30.329Z,1010.23
2018-05-29T05:40:30.285Z,1010.24
2018-05-29T05:41:30.275Z,1010.25
2018-05-29T05:42:30.272Z,1010.25
2018-05-29T05:43:30.258Z,1010.20
2018-05-29T05:44:30.252Z,1010.24
2018-05-29T05:45:30.256Z,1010.24
2018-05-29T05:46:30.253Z,1010.21
2018-05-29T05:47:30.218Z,1010.24
2018-05-29T05:48:30.218Z,1010.23
2018-05-29T05:49:30.204Z,1010.19
2018-05-29T05:50:30.208Z,1010.23
2018-05-29T05:51:30.221Z,1010.19
2018-05-29T05:52:30.186Z,1010.23
2018-05-29T05:53:30.168Z,1010.20
2018-05-29T05:54:30.161Z,1010.22
2018-05-29T05:55:30.159Z,1010.19
2018-05-29T05:56:30.146Z,1010.19
2018-05-29T05:57:30.155Z,1010.14
2018-05-29T05:58:30.149Z,1010.19
2018-05-29T05:59:30.114Z,1010.20
2018-05-29T06:00:30.115Z,1010.20
2018-05-29T06:01:30.114Z,1010.20
2018-05-29T06:02:30.117Z,1010.21
2018-05-29T06:03:30.084Z,1010.22
2018-05-29T06:04:30.083Z,1010.21
2018-05-29T06:05:30.079Z,1010.23
2018-05-29T06:06:30.085Z,1010.19
2018-05-29T06:07:30.065Z,1010.21
2018-05-29T06:08:30.039Z,1010.19
2018-05-29T06:09:30.037Z,1010.20
2018-05-29T06:10:30.032Z,1010.20
2018-05-29T06:11:30.018Z,1010.18
2018-05-29T06:12:30.024Z,1010.17
2018-05-29T06:13:29.997Z,1010.16
2018-05-29T06:14:29.991Z,1010.16
2018-05-29T06:15:29.983Z,1010.16
2018-05-29T06:16:29.977Z,1010.17
2018-05-29T06:17:29.993Z,1010.17
2018-05-29T06:18:29.966Z,1010.15
2018-05-29T06:19:29.948Z,1010.15
2018-05-29T06:20:29.943Z,1010.15
2018-05-29T06:21:29.936Z,1010.17
2018-05-29T06:22:29.945Z,1010.20
2018-05-29T06:23:29.927Z,1010.17
2018-05-29T06:24:29.911Z,1010.16
2018-05-29T06:25:29.904Z,1010.16
2018-05-29T06:26:29.891Z,1010.15
2018-05-29T06:27:29.881Z,1010.17
2018-05-29T06:28:29.898Z,1010.13
2018-05-29T06:29:29.866Z,1010.15
2018-05-29T06:30:29.862Z,1010.13
2018-05-29T06:31:29.855Z,1010.13
2018-05-29T06:32:29.852Z,1010.11
2018-05-29T06:33:29.839Z,1010.12
2018-05-29T06:34:29.846Z,1010.13
2018-05-29T06:35:29.827Z,1010.12
2018-05-29T06:36:29.831Z,1010.14
2018-05-29T06:37:29.804Z,1010.17
2018-05-29T06:38:29.799Z,1010.16
2018-05-29T06:39:29.804Z,1010.15
2018-05-29T06:40:29.798Z,1010.19
2018-05-29T06:41:29.837Z,1010.23
2018-05-29T06:42:29.779Z,1010.19
2018-05-29T06:43:29.762Z,1010.16
2018-05-29T06:44:29.813Z,1010.20
2018-05-29T06:45:29.743Z,1010.16
2018-05-29T06:46:29.737Z,1010.17
2018-05-29T06:47:29.734Z,1010.16
2018-05-29T06:48:29.729Z,1010.18
2018-05-29T06:49:29.713Z,1010.16
2018-05-29T06:50:29.728Z,1010.14
2018-05-29T06:51:29.712Z,1010.14
2018-05-29T06:52:29.737Z,1010.13
2018-05-29T06:53:29.687Z,1010.17
2018-05-29T06:54:29.670Z,1010.16
2018-05-29T06:55:29.684Z,1010.16
2018-05-29T06:56:29.661Z,1010.21
2018-05-29T06:57:29.656Z,1010.22
2018-05-29T06:58:29.646Z,1010.24
2018-05-29T06:59:29.639Z,1010.23
2018-05-29T07:00:29.655Z,1010.26
2018-05-29T07:01:29.645Z,1010.26
2018-05-29T07:02:29.614Z,1010.25
2018-05-29T07:03:29.616Z,1010.23
2018-05-29T07:04:29.596Z,1010.19
2018-05-29T07:05:29.608Z,1010.21
2018-05-29T07:06:29.603Z,1010.17
2018-05-29T07:07:29.574Z,1010.17
2018-05-29T07:08:29.575Z,1010.19
2018-05-29T07:09:29.580Z,1010.17
2018-05-29T07:10:29.564Z,1010.20
2018-05-29T07:11:29.577Z,1010.19
2018-05-29T07:12:29.547Z,1010.21
2018-05-29T07:13:29.549Z,1010.19
2018-05-29T07:14:29.552Z,1010.18
2018-05-29T07:15:29.528Z,1010.22
2018-05-29T07:16:29.509Z,1010.19
2018-05-29T07:17:29.522Z,1010.19
2018-05-29T07:18:29.500Z,1010.19
2018-05-29T07:19:29.506Z,1010.21
2018-05-29T07:20:29.490Z,1010.18
2018-05-29T07:21:29.475Z,1010.22
2018-05-29T07:22:29.487Z,1010.18
2018-05-29T07:23:29.478Z,1010.16
2018-05-29T07:24:29.450Z,1010.85
2018-05-29T07:25:29.448Z,1010.19
2018-05-29T07:26:29.436Z,1010.17
2018-05-29T07:27:29.432Z,1010.17
2018-05-29T07:28:29.423Z,1010.18
2018-05-29T07:29:29.427Z,1010.11
2018-05-29T07:30:29.404Z,1010.15
2018-05-29T07:31:29.407Z,1010.11
2018-05-29T07:32:29.402Z,1010.12
2018-05-29T07:33:29.391Z,1010.13
2018-05-29T07:34:29.391Z,1010.10
2018-05-29T07:35:29.375Z,1010.19
2018-05-29T07:36:29.364Z,1010.07
2018-05-29T07:37:29.360Z,1010.08
2018-05-29T07:38:29.351Z,1010.01
2018-05-29T07:39:29.381Z,1009.98
2018-05-29T07:40:29.334Z,1009.95
2018-05-29T07:41:29.325Z,1009.98
2018-05-29T07:42:29.330Z,1009.95
2018-05-29T07:43:29.317Z,1009.96
2018-05-29T07:44:29.325Z,1009.96
2018-05-29T07:45:29.314Z,1009.97
2018-05-29T07:46:29.306Z,1009.94
2018-05-29T07:47:29.288Z,1009.94
2018-05-29T07:48:29.283Z,1009.95
2018-05-29T07:49:29.278Z,1009.95
2018-05-29T07:50:29.289Z,1009.94
2018-05-29T07:51:29.258Z,1009.88
2018-05-29T07:52:29.257Z,1009.88
2018-05-29T07:53:29.248Z,1009.88
2018-05-29T07:54:29.237Z,1009.89
2018-05-29T07:55:29.246Z,1009.87
2018-05-29T07:56:29.225Z,1009.85
2018-05-29T07:57:29.220Z,1009.82
2018-05-29T07:58:29.210Z,1009.81
2018-05-29T07:59:29.201Z,1009.79
2018-05-29T08:00:29.231Z,1009.76
2018-05-29T08:01:29.184Z,1009.79
2018-05-29T08:02:29.194Z,1009.79
2018-05-29T08:03:29.184Z,1009.75
2018-05-29T08:04:29.167Z,1009.79
2018-05-29T08:05:29.163Z,1009.75
2018-05-29T08:06:29.226Z,1009.75
2018-05-29T08:07:29.150Z,1009.76
2018-05-29T08:08:29.182Z,1009.73
2018-05-29T08:09:29.129Z,1009.80
2018-05-29T08:10:29.124Z,1009.78
2018-05-29T08:11:29.147Z,1009.81
2018-05-29T08:12:29.112Z,1009.74
2018-05-29T08:13:29.098Z,1009.76
2018-05-29T08:14:29.093Z,1009.78
2018-05-29T08:15:29.109Z,1009.75
2018-05-29T08:16:29.073Z,1009.75
2018-05-29T08:17:29.082Z,1009.75
2018-05-29T08:18:29.092Z,1009.75
2018-05-29T08:19:29.051Z,1009.74
2018-05-29T08:20:29.047Z,1009.75
2018-05-29T08:21:29.051Z,1009.75
2018-05-29T08:22:29.048Z,1009.72
2018-05-29T08:23:29.045Z,1009.72
2018-05-29T08:24:29.019Z,1009.74
2018-05-29T08:25:29.011Z,1009.72
2018-05-29T08:26:29.005Z,1009.73
2018-05-29T08:27:28.993Z,1009.76
2018-05-29T08:28:28.991Z,1009.71
2018-05-29T08:29:29.006Z,1009.70
2018-05-29T08:30:28.985Z,1009.67
2018-05-29T08:31:28.977Z,1009.65
2018-05-29T08:32:28.973Z,1009.69
2018-05-29T08:33:28.956Z,1009.64
2018-05-29T08:34:28.959Z,1009.68
2018-05-29T08:35:28.945Z,1009.68
2018-05-29T08:36:28.950Z,1009.70
2018-05-29T08:37:28.949Z,1009.67
2018-05-29T08:38:28.918Z,1009.66
2018-05-29T08:39:28.954Z,1009.66
2018-05-29T08:40:28.909Z,1009.64
2018-05-29T08:41:28.909Z,1009.64
2018-05-29T08:42:28.893Z,1009.62
2018-05-29T08:43:28.886Z,1009.59
2018-05-29T08:44:28.877Z,1009.61
2018-05-29T08:45:28.879Z,1009.63
2018-05-29T08:46:28.868Z,1009.62
2018-05-29T08:47:28.858Z,1009.59
2018-05-29T08:48:28.845Z,1009.61
2018-05-29T08:49:28.863Z,1009.61
2018-05-29T08:50:28.857Z,1009.57
2018-05-29T08:51:28.841Z,1009.57
2018-05-29T08:52:28.826Z,1009.55
2018-05-29T08:53:28.816Z,1009.49
2018-05-29T08:54:28.813Z,1009.54
2018-05-29T08:55:28.817Z,1009.51
2018-05-29T08:56:28.792Z,1009.52
2018-05-29T08:57:28.788Z,1009.52
2018-05-29T08:58:28.784Z,1009.54
2018-05-29T08:59:28.785Z,1009.54
2018-05-29T09:00:28.795Z,1009.53
2018-05-29T09:01:28.800Z,1009.51
2018-05-29T09:02:28.759Z,1009.53
2018-05-29T09:03:28.747Z,1009.52
2018-05-29T09:04:28.744Z,1009.57
2018-05-29T09:05:28.749Z,1009.59
2018-05-29T09:06:28.764Z,1009.84
2018-05-29T09:07:28.757Z,1009.62
2018-05-29T09:08:28.718Z,1009.82
2018-05-29T09:09:28.716Z,1009.88
2018-05-29T09:10:28.719Z,1009.86
2018-05-29T09:11:28.696Z,1009.87
2018-05-29T09:12:28.695Z,1009.83
2018-05-29T09:13:28.709Z,1009.77
2018-05-29T09:14:28.687Z,1009.79
2018-05-29T09:15:28.681Z,1009.83
2018-05-29T09:16:28.673Z,1009.81
2018-05-29T09:17:28.674Z,1009.80
2018-05-29T09:18:28.677Z,1009.81
2018-05-29T09:19:28.658Z,1009.79
2018-05-29T09:20:28.653Z,1009.76
2018-05-29T09:21:28.651Z,1009.82
2018-05-29T09:22:28.642Z,1009.85
2018-05-29T09:23:28.657Z,1009.82
2018-05-29T09:24:28.635Z,1009.82
2018-05-29T09:25:28.636Z,1009.82
2018-05-29T09:26:28.634Z,1009.84
2018-05-29T09:27:28.636Z,1009.87
2018-05-29T09:28:28.661Z,1009.85
2018-05-29T09:29:28.622Z,1009.90
2018-05-29T09:30:28.625Z,1009.89
2018-05-29T09:31:28.618Z,1009.88
2018-05-29T09:32:28.618Z,1009.89
2018-05-29T09:33:28.641Z,1009.82
2018-05-29T09:34:28.629Z,1009.81
2018-05-29T09:35:28.641Z,1009.77
2018-05-29T09:36:28.632Z,1009.75
2018-05-29T09:37:28.624Z,1009.79
2018-05-29T09:38:28.611Z,1009.73
2018-05-29T09:39:28.618Z,1009.69
2018-05-29T09:40:28.632Z,1009.66
2018-05-29T09:41:28.675Z,1009.65
2018-05-29T09:42:28.614Z,1009.67
2018-05-29T09:43:28.615Z,1009.64
2018-05-29T09:44:28.629Z,1009.61
2018-05-29T09:45:28.647Z,1009.60
2018-05-29T09:46:28.617Z,1009.61
2018-05-29T09:47:28.619Z,1009.57
2018-05-29T09:48:28.613Z,1009.56
2018-05-29T09:49:28.626Z,1009.55
2018-05-29T09:50:28.635Z,1009.57
2018-05-29T09:51:28.666Z,1009.52
2018-05-29T09:52:28.617Z,1009.50
2018-05-29T09:53:28.637Z,1009.51
2018-05-29T09:54:28.665Z,1009.52
2018-05-29T09:55:28.653Z,1009.44
2018-05-29T09:56:28.641Z,1009.40
2018-05-29T09:57:28.626Z,1009.42
2018-05-29T09:58:28.630Z,1009.47
2018-05-29T09:59:28.632Z,1009.44
2018-05-29T10:00:28.636Z,1009.41
2018-05-29T10:01:28.653Z,1009.40
2018-05-29T10:02:28.642Z,1009.37
2018-05-29T10:03:28.649Z,1009.39
2018-05-29T10:04:28.659Z,1009.40
2018-05-29T10:05:28.646Z,1009.32
2018-05-29T10:06:28.664Z,1009.31
2018-05-29T10:07:28.670Z,1009.24
2018-05-29T10:08:28.648Z,1009.24
2018-05-29T10:09:28.651Z,1009.31
2018-05-29T10:10:28.649Z,1009.33
2018-05-29T10:11:28.658Z,1009.35
2018-05-29T10:12:28.661Z,1009.38
2018-05-29T10:13:28.655Z,1009.36
2018-05-29T10:14:28.651Z,1009.39
2018-05-29T10:15:28.655Z,1009.41
2018-05-29T10:16:28.646Z,1009.37
2018-05-29T10:17:28.669Z,1009.37
2018-05-29T10:18:28.659Z,1009.43
2018-05-29T10:19:28.676Z,1009.41
2018-05-29T10:20:28.649Z,1009.33
2018-05-29T10:21:28.655Z,1009.24
2018-05-29T10:22:28.674Z,1009.20
2018-05-29T10:23:28.659Z,1009.21
2018-05-29T10:24:28.665Z,1009.14
2018-05-29T10:25:28.658Z,1009.13
2018-05-29T10:26:28.668Z,1009.20
2018-05-29T10:27:28.680Z,1009.18
2018-05-29T10:28:28.664Z,1009.18
2018-05-29T10:29:28.667Z,1009.23
2018-05-29T10:30:28.667Z,1009.27
2018-05-29T10:31:28.670Z,1009.28
2018-05-29T10:32:28.685Z,1009.25
2018-05-29T10:33:28.671Z,1009.26
2018-05-29T10:34:28.671Z,1009.24
2018-05-29T10:35:28.669Z,1009.17
2018-05-29T10:36:28.671Z,1009.16
2018-05-29T10:37:28.673Z,1009.18
2018-05-29T10:38:28.703Z,1009.22
2018-05-29T10:39:28.682Z,1009.22
2018-05-29T10:40:28.681Z,1009.29
2018-05-29T10:41:28.684Z,1009.29
2018-05-29T10:42:28.693Z,1009.27
2018-05-29T10:43:28.704Z,1009.28
2018-05-29T10:44:28.693Z,1009.32
2018-05-29T10:45:28.710Z,1009.26
2018-05-29T10:46:28.694Z,1009.29
2018-05-29T10:47:28.696Z,1009.28
2018-05-29T10:48:28.714Z,1009.28
2018-05-29T10:49:28.703Z,1009.28
2018-05-29T10:50:28.703Z,1009.22
2018-05-29T10:51:28.704Z,1009.14
2018-05-29T10:52:28.750Z,1009.10
2018-05-29T10:53:28.708Z,1009.07
2018-05-29T10:54:28.729Z,1009.02
2018-05-29T10:55:28.715Z,1009.04
2018-05-29T10:56:28.719Z,1009.04
2018-05-29T10:57:28.739Z,1009.05
2018-05-29T10:58:28.719Z,1009.05
2018-05-29T10:59:28.737Z,1009.09
2018-05-29T11:00:28.734Z,1009.08
2018-05-29T11:01:28.749Z,1009.09
2018-05-29T11:02:28.742Z,1009.09
2018-05-29T11:03:28.743Z,1009.06
2018-05-29T11:04:28.758Z,1009.02
2018-05-29T11:05:28.732Z,1008.96
2018-05-29T11:06:28.738Z,1008.97
2018-05-29T11:07:28.737Z,1008.91
2018-05-29T11:08:28.737Z,1008.84
2018-05-29T11:09:28.758Z,1008.86
2018-05-29T11:10:28.738Z,1008.87
2018-05-29T11:11:28.743Z,1008.89
2018-05-29T11:12:28.741Z,1008.88
2018-05-29T11:13:28.743Z,1008.85
2018-05-29T11:14:28.758Z,1008.81
2018-05-29T11:15:28.781Z,1008.81
2018-05-29T11:16:28.742Z,1008.82
2018-05-29T11:17:28.765Z,1008.78
2018-05-29T11:18:28.752Z,1008.77
2018-05-29T11:19:28.749Z,1008.77
2018-05-29T11:20:28.755Z,1008.82
2018-05-29T11:21:28.784Z,1008.86
2018-05-29T11:22:28.755Z,1008.92
2018-05-29T11:23:28.748Z,1008.86
2018-05-29T11:24:28.759Z,1008.93
2018-05-29T11:25:28.768Z,1008.95
2018-05-29T11:26:28.755Z,1008.93
2018-05-29T11:27:28.753Z,1008.95
2018-05-29T11:28:28.776Z,1008.96
2018-05-29T11:29:28.768Z,1008.95
2018-05-29T11:30:28.753Z,1008.91
2018-05-29T11:31:28.772Z,1008.89
2018-05-29T11:32:28.754Z,1008.88
2018-05-29T11:33:28.755Z,1008.85
2018-05-29T11:34:28.759Z,1008.75
2018-05-29T11:35:28.758Z,1008.70
2018-05-29T11:36:28.785Z,1008.76
2018-05-29T11:37:28.765Z,1008.72
2018-05-29T11:38:28.778Z,1008.64
2018-05-29T11:39:28.765Z,1008.66
2018-05-29T11:40:28.772Z,1008.57
2018-05-29T11:41:28.785Z,1008.58
2018-05-29T11:42:28.847Z,1008.53
2018-05-29T11:43:28.816Z,1008.51
2018-05-29T11:44:28.775Z,1008.45
2018-05-29T11:45:28.782Z,1008.36
2018-05-29T11:46:28.790Z,1008.35
2018-05-29T11:47:28.785Z,1008.40
2018-05-29T11:48:28.776Z,1008.33
2018-05-29T11:49:28.771Z,1008.34
2018-05-29T11:50:28.789Z,1008.33
2018-05-29T11:51:28.776Z,1008.31
2018-05-29T11:52:28.786Z,1008.26
2018-05-29T11:53:28.801Z,1008.21
2018-05-29T11:54:28.773Z,1008.28
2018-05-29T11:55:28.780Z,1008.20
2018-05-29T11:56:28.768Z,1008.16
2018-05-29T11:57:28.765Z,1008.17
2018-05-29T11:58:28.769Z,1008.17
2018-05-29T11:59:28.779Z,1008.12
2018-05-29T12:00:28.773Z,1008.14
2018-05-29T12:01:28.762Z,1008.16
2018-05-29T12:02:28.887Z,1008.17
2018-05-29T12:03:28.778Z,1008.21
2018-05-29T12:04:28.769Z,1008.20
2018-05-29T12:05:28.758Z,1008.21